createdAt,value
2022-10-25T00:01:32.746Z,95841.00
2022-10-25T00:04:02.468Z,95855.25
2022-10-25T00:06:32.286Z,95846.63
2022-10-25T00:09:01.965Z,95848.25
2022-10-25T00:11:34.197Z,95848.50
2022-10-25T00:14:07.583Z,95842.06
2022-10-25T00:16:43.790Z,95843.94
2022-10-25T00:19:14.250Z,95828.09
2022-10-25T00:21:43.777Z,95835.91
2022-10-25T00:24:14.049Z,95840.69
2022-10-25T00:26:45.050Z,95839.34
2022-10-25T00:29:14.525Z,95829.66
2022-10-25T00:31:44.174Z,95829.34
2022-10-25T00:34:13.762Z,95831.50
2022-10-25T00:36:43.766Z,95832.50
2022-10-25T00:39:13.238Z,95829.75
2022-10-25T00:41:44.034Z,95837.25
2022-10-25T00:44:52.608Z,95834.75
2022-10-25T00:47:45.963Z,95849.72
2022-10-25T00:50:27.821Z,95852.06
2022-10-25T00:53:06.413Z,95849.81
2022-10-25T00:55:37.143Z,95847.88
2022-10-25T00:58:15.179Z,95845.69
2022-10-25T01:00:46.284Z,95838.69
2022-10-25T01:03:18.438Z,95833.84
2022-10-25T01:05:49.980Z,95827.13
2022-10-25T01:08:25.103Z,95822.81
2022-10-25T01:10:54.566Z,95830.06
2022-10-25T01:13:25.565Z,95826.81
2022-10-25T01:16:10.651Z,95826.25
2022-10-25T01:18:52.503Z,95832.03
2022-10-25T01:21:47.381Z,95825.75
2022-10-25T01:25:14.473Z,95813.34
2022-10-25T01:28:10.619Z,95810.13
2022-10-25T01:31:19.990Z,95809.00
2022-10-25T01:33:59.343Z,95806.00
2022-10-25T01:36:42.235Z,95809.16
2022-10-25T01:39:20.060Z,95806.72
2022-10-25T01:42:05.987Z,95803.56
2022-10-25T01:44:48.393Z,95804.13
2022-10-25T01:47:22.718Z,95822.59
2022-10-25T01:49:59.491Z,95817.81
2022-10-25T01:52:29.739Z,95814.06
2022-10-25T01:54:59.327Z,95808.28
2022-10-25T01:57:59.674Z,95812.50
2022-10-25T02:00:32.569Z,95813.19
2022-10-25T02:03:16.053Z,95824.03
2022-10-25T02:05:59.476Z,95813.78
2022-10-25T02:08:38.703Z,95819.78
2022-10-25T02:11:19.215Z,95814.56
2022-10-25T02:14:07.243Z,95816.78
2022-10-25T02:16:43.425Z,95829.50
2022-10-25T02:19:19.365Z,95838.72
2022-10-25T02:21:51.130Z,95832.91
2022-10-25T02:24:26.481Z,95827.06
2022-10-25T02:26:58.045Z,95814.97
2022-10-25T02:29:32.116Z,95818.72
2022-10-25T02:32:03.430Z,95815.50
2022-10-25T02:34:35.475Z,95827.06
2022-10-25T02:37:04.885Z,95812.00
2022-10-25T02:39:36.215Z,95807.94
2022-10-25T02:42:06.186Z,95824.91
2022-10-25T02:44:35.561Z,95815.28
2022-10-25T02:47:04.957Z,95816.34
2022-10-25T02:49:35.706Z,95826.94
2022-10-25T02:52:05.253Z,95822.91
2022-10-25T02:54:34.623Z,95827.78
2022-10-25T02:57:04.042Z,95832.59
2022-10-25T02:59:33.671Z,95833.94
2022-10-25T03:02:03.192Z,95826.38
2022-10-25T03:04:32.630Z,95831.19
2022-10-25T03:07:03.406Z,95836.56
2022-10-25T03:09:32.937Z,95830.94
2022-10-25T03:12:02.304Z,95823.97
2022-10-25T03:14:31.695Z,95827.78
2022-10-25T03:17:01.078Z,95828.84
2022-10-25T03:19:30.702Z,95833.16
2022-10-25T03:22:00.097Z,95829.09
2022-10-25T03:24:30.911Z,95821.53
2022-10-25T03:27:00.355Z,95833.63
2022-10-25T03:29:29.761Z,95821.50
2022-10-25T03:31:59.146Z,95834.41
2022-10-25T03:34:28.877Z,95834.91
2022-10-25T03:36:58.749Z,95836.53
2022-10-25T03:39:28.145Z,95835.72
2022-10-25T03:41:58.984Z,95845.50
2022-10-25T03:44:28.434Z,95847.16
2022-10-25T03:46:57.825Z,95847.66
2022-10-25T03:49:27.279Z,95842.03
2022-10-25T03:51:58.885Z,95847.66
2022-10-25T03:54:30.667Z,95848.44
2022-10-25T03:57:02.368Z,95851.63
2022-10-25T03:59:31.808Z,95852.66
2022-10-25T04:02:02.514Z,95856.91
2022-10-25T04:04:31.979Z,95861.69
2022-10-25T04:07:01.400Z,95856.53
2022-10-25T04:09:30.846Z,95858.59
2022-10-25T04:12:02.154Z,95849.47
2022-10-25T04:14:31.551Z,95844.34
2022-10-25T04:17:01.029Z,95841.66
2022-10-25T04:19:30.528Z,95839.47
2022-10-25T04:22:02.116Z,95838.91
2022-10-25T04:24:31.817Z,95837.81
2022-10-25T04:27:02.552Z,95847.44
2022-10-25T04:29:31.913Z,95842.81
2022-10-25T04:32:01.302Z,95847.88
2022-10-25T04:34:30.741Z,95851.91
2022-10-25T04:37:00.196Z,95851.38
2022-10-25T04:39:29.601Z,95854.28
2022-10-25T04:41:59.061Z,95852.41
2022-10-25T04:44:29.863Z,95850.81
2022-10-25T04:46:59.268Z,95850.81
2022-10-25T04:49:28.673Z,95844.88
2022-10-25T04:51:59.058Z,95850.00
2022-10-25T04:54:28.513Z,95855.38
2022-10-25T04:56:57.907Z,95862.38
2022-10-25T04:59:27.290Z,95865.06
2022-10-25T05:02:00.759Z,95865.59
2022-10-25T05:04:30.193Z,95864.97
2022-10-25T05:06:59.648Z,95867.47
2022-10-25T05:09:29.053Z,95874.47
2022-10-25T05:11:58.555Z,95862.34
2022-10-25T05:14:27.945Z,95877.44
2022-10-25T05:16:58.909Z,95872.88
2022-10-25T05:19:28.345Z,95877.44
2022-10-25T05:21:57.802Z,95878.78
2022-10-25T05:24:27.829Z,95865.03
2022-10-25T05:26:57.241Z,95873.09
2022-10-25T05:29:26.619Z,95866.34
2022-10-25T05:31:56.036Z,95866.16
2022-10-25T05:34:27.317Z,95869.63
2022-10-25T05:36:57.289Z,95875.31
2022-10-25T05:39:26.841Z,95882.97
2022-10-25T05:41:56.265Z,95879.28
2022-10-25T05:44:25.766Z,95884.72
2022-10-25T05:46:55.735Z,95881.25
2022-10-25T05:49:26.533Z,95886.75
2022-10-25T05:51:55.911Z,95884.91
2022-10-25T05:54:25.350Z,95887.06
2022-10-25T05:56:54.687Z,95880.09
2022-10-25T05:59:24.073Z,95885.53
2022-10-25T06:01:53.688Z,95891.47
2022-10-25T06:04:23.139Z,95895.00
2022-10-25T06:06:53.893Z,95902.31
2022-10-25T06:09:23.359Z,95904.72
2022-10-25T06:11:52.789Z,95916.00
2022-10-25T06:14:22.273Z,95920.81
2022-10-25T06:16:51.699Z,95920.78
2022-10-25T06:19:21.273Z,95928.34
2022-10-25T06:21:50.658Z,95925.34
2022-10-25T06:24:21.501Z,95918.59
2022-10-25T06:26:50.951Z,95926.91
2022-10-25T06:29:20.462Z,95920.47
2022-10-25T06:31:50.465Z,95925.03
2022-10-25T06:34:20.530Z,95929.06
2022-10-25T06:36:49.992Z,95919.88
2022-10-25T06:39:20.748Z,95920.19
2022-10-25T06:41:50.104Z,95929.00
2022-10-25T06:44:19.466Z,95929.06
2022-10-25T06:49:38.200Z,95929.34
2022-10-25T06:52:07.644Z,95935.59
2022-10-25T06:54:38.430Z,95937.22
2022-10-25T06:57:07.926Z,95938.03
2022-10-25T06:59:37.384Z,95936.72
2022-10-25T07:02:07.103Z,95949.66
2022-10-25T07:04:36.538Z,95946.97
2022-10-25T07:07:05.906Z,95944.41
2022-10-25T07:09:35.322Z,95951.19
2022-10-25T07:12:11.536Z,95956.66
2022-10-25T07:14:42.312Z,95958.66
2022-10-25T07:17:11.733Z,95957.34
2022-10-25T07:19:41.086Z,95957.09
2022-10-25T07:22:10.476Z,95966.59
2022-10-25T07:24:39.924Z,95961.25
2022-10-25T07:27:10.673Z,95962.94
2022-10-25T07:29:40.109Z,95955.16
2022-10-25T07:32:09.822Z,95959.50
2022-10-25T07:34:39.217Z,95961.19
2022-10-25T07:37:08.613Z,95962.28
2022-10-25T07:39:38.013Z,95963.94
2022-10-25T07:42:07.472Z,95966.13
2022-10-25T07:44:38.249Z,95962.91
2022-10-25T07:47:07.786Z,95972.38
2022-10-25T07:49:38.799Z,95968.63
2022-10-25T07:52:08.165Z,95967.78
2022-10-25T07:54:37.542Z,95969.69
2022-10-25T07:57:07.444Z,95978.03
2022-10-25T07:59:38.222Z,95974.53
2022-10-25T08:02:09.854Z,95978.34
2022-10-25T08:04:39.337Z,95972.41
2022-10-25T08:07:08.815Z,95978.88
2022-10-25T08:09:38.899Z,95980.75
2022-10-25T08:12:08.924Z,95977.53
2022-10-25T08:14:41.670Z,95979.16
2022-10-25T08:17:12.691Z,95971.31
2022-10-25T08:19:42.045Z,95968.63
2022-10-25T08:22:11.660Z,95978.06
2022-10-25T08:24:41.066Z,95972.63
2022-10-25T08:27:10.482Z,95975.88
2022-10-25T08:29:41.219Z,95970.47
2022-10-25T08:32:10.682Z,95977.22
2022-10-25T08:34:40.137Z,95971.50
2022-10-25T08:37:13.070Z,95975.00
2022-10-25T08:39:42.460Z,95965.00
2022-10-25T08:42:24.549Z,95978.47
2022-10-25T08:45:02.911Z,95970.09
2022-10-25T08:47:39.668Z,95975.47
2022-10-25T08:50:19.711Z,95961.41
2022-10-25T08:52:54.962Z,95974.09
2022-10-25T08:55:34.020Z,95963.25
2022-10-25T08:58:08.305Z,95972.13
2022-10-25T09:00:44.310Z,95969.66
2022-10-25T09:03:18.027Z,95971.25
2022-10-25T09:06:05.351Z,95965.78
2022-10-25T09:08:57.792Z,95976.06
2022-10-25T09:11:48.782Z,95973.59
2022-10-25T09:14:32.347Z,95972.50
2022-10-25T09:17:18.911Z,95977.88
2022-10-25T09:20:06.478Z,95973.81
2022-10-25T09:22:50.179Z,95966.34
2022-10-25T09:25:26.850Z,95963.53
2022-10-25T09:28:03.596Z,95960.44
2022-10-25T09:30:38.544Z,95965.72
2022-10-25T09:33:13.835Z,95965.09
2022-10-25T09:35:48.723Z,95959.63
2022-10-25T09:38:26.230Z,95965.88
2022-10-25T09:41:03.170Z,95969.38
2022-10-25T09:43:41.561Z,95963.31
2022-10-25T09:46:17.686Z,95969.50
2022-10-25T09:48:59.326Z,95960.19
2022-10-25T09:51:38.965Z,95973.09
2022-10-25T09:54:21.810Z,95965.75
2022-10-25T09:56:51.436Z,95967.63
2022-10-25T09:59:20.821Z,95962.19
2022-10-25T10:01:50.565Z,95968.13
2022-10-25T10:04:34.074Z,95977.22
2022-10-25T10:07:14.665Z,95969.91
2022-10-25T10:09:46.308Z,95974.47
2022-10-25T10:12:25.247Z,95966.31
2022-10-25T10:15:02.545Z,95968.50
2022-10-25T10:17:32.682Z,95972.06
2022-10-25T10:20:15.209Z,95969.44
2022-10-25T10:22:52.445Z,95978.22
2022-10-25T10:25:27.429Z,95974.13
2022-10-25T10:27:59.140Z,95975.75
2022-10-25T10:30:31.675Z,95965.34
2022-10-25T10:33:03.087Z,95972.28
2022-10-25T10:35:37.459Z,95965.63
2022-10-25T10:38:23.216Z,95960.16
2022-10-25T10:40:56.009Z,95952.38
2022-10-25T10:43:30.833Z,95951.72
2022-10-25T10:46:06.354Z,95948.97
2022-10-25T10:48:43.312Z,95948.13
2022-10-25T10:54:22.774Z,95943.19
2022-10-25T10:57:01.971Z,95935.16
2022-10-25T10:59:40.145Z,95942.06
2022-10-25T11:02:27.426Z,95946.16
2022-10-25T11:04:57.961Z,95940.19
2022-10-25T11:07:36.456Z,95937.38
2022-10-25T11:10:32.202Z,95924.59
2022-10-25T11:13:17.373Z,95927.63
2022-10-25T11:16:32.969Z,95923.09
2022-10-25T11:19:27.336Z,95921.59
2022-10-25T11:22:33.123Z,95911.91
2022-10-25T11:25:27.801Z,95921.81
2022-10-25T11:28:32.342Z,95913.22
2022-10-25T11:31:15.716Z,95916.53
2022-10-25T11:34:05.472Z,95911.69
2022-10-25T11:36:53.162Z,95907.56
2022-10-25T11:39:50.477Z,95904.94
2022-10-25T11:42:53.613Z,95901.72
2022-10-25T11:45:42.025Z,95898.81
2022-10-25T11:48:48.039Z,95905.34
2022-10-25T11:51:33.300Z,95905.66
2022-10-25T11:54:22.293Z,95898.81
2022-10-25T11:57:10.846Z,95902.53
2022-10-25T12:00:00.786Z,95898.09
2022-10-25T12:03:05.330Z,95900.53
2022-10-25T12:05:45.428Z,95901.03
2022-10-25T12:08:38.966Z,95891.84
2022-10-25T12:11:18.009Z,95891.56
2022-10-25T12:13:55.872Z,95892.66
2022-10-25T12:16:26.598Z,95895.28
2022-10-25T12:19:09.002Z,95891.75
2022-10-25T12:21:47.588Z,95885.50
2022-10-25T12:24:23.299Z,95888.81
2022-10-25T12:26:55.859Z,95890.31
2022-10-25T12:29:35.980Z,95887.78
2022-10-25T12:32:15.709Z,95884.56
2022-10-25T12:34:50.207Z,95887.47
2022-10-25T12:37:31.165Z,95889.59
2022-10-25T12:40:00.659Z,95893.78
2022-10-25T12:42:38.347Z,95887.66
2022-10-25T12:45:43.873Z,95884.53
2022-10-25T12:48:41.129Z,95890.84
2022-10-25T12:51:32.885Z,95881.84
2022-10-25T12:54:59.880Z,95889.81
2022-10-25T12:57:47.623Z,95884.03
2022-10-25T13:00:21.826Z,95874.78
2022-10-25T13:03:52.266Z,95886.44
2022-10-25T13:06:35.269Z,95875.75
2022-10-25T13:09:10.867Z,95876.78
2022-10-25T13:11:44.934Z,95872.38
2022-10-25T13:14:26.413Z,95862.47
2022-10-25T13:17:59.978Z,95861.84
2022-10-25T13:20:51.495Z,95862.94
2022-10-25T13:24:02.344Z,95863.16
2022-10-25T13:27:21.952Z,95857.13
2022-10-25T13:30:32.113Z,95857.03
2022-10-25T13:33:33.372Z,95856.53
2022-10-25T13:36:05.929Z,95853.28
2022-10-25T13:38:39.888Z,95847.28
2022-10-25T13:41:16.506Z,95851.19
2022-10-25T13:44:05.010Z,95847.06
2022-10-25T13:46:41.348Z,95841.34
2022-10-25T13:49:35.646Z,95839.28
2022-10-25T13:52:09.464Z,95841.94
2022-10-25T13:54:49.512Z,95836.66
2022-10-25T13:57:53.357Z,95834.63
2022-10-25T14:00:39.623Z,95845.94
2022-10-25T14:03:47.368Z,95833.66
2022-10-25T14:06:30.967Z,95828.88
2022-10-25T14:09:25.286Z,95829.72
2022-10-25T14:12:11.985Z,95828.50
2022-10-25T14:14:50.181Z,95831.28
2022-10-25T14:17:32.380Z,95827.75
2022-10-25T14:20:04.704Z,95835.66
2022-10-25T14:22:37.834Z,95826.84
2022-10-25T14:25:17.201Z,95837.22
2022-10-25T14:27:46.602Z,95832.63
2022-10-25T14:30:24.875Z,95824.75
2022-10-25T14:32:56.368Z,95831.44
2022-10-25T14:35:29.967Z,95828.53
2022-10-25T14:38:01.300Z,95825.94
2022-10-25T14:40:32.649Z,95827.44
2022-10-25T14:43:23.733Z,95834.28
2022-10-25T14:45:58.060Z,95836.06
2022-10-25T14:48:27.786Z,95824.59
2022-10-25T14:50:59.129Z,95818.47
2022-10-25T14:53:29.691Z,95818.75
2022-10-25T14:56:01.828Z,95817.69
2022-10-25T14:58:40.302Z,95818.44
2022-10-25T15:01:10.668Z,95825.84
2022-10-25T15:03:44.755Z,95818.81
2022-10-25T15:06:15.809Z,95824.91
2022-10-25T15:08:51.487Z,95826.50
2022-10-25T15:11:21.660Z,95820.59
2022-10-25T15:13:54.447Z,95811.47
2022-10-25T15:16:36.140Z,95820.00
2022-10-25T15:19:18.549Z,95821.78
2022-10-25T15:21:51.714Z,95820.72
2022-10-25T15:24:25.063Z,95825.69
2022-10-25T15:26:59.476Z,95820.31
2022-10-25T15:32:21.201Z,95825.91
2022-10-25T15:34:53.459Z,95828.59
2022-10-25T15:37:25.483Z,95822.06
2022-10-25T15:39:57.988Z,95827.38
2022-10-25T15:42:28.074Z,95827.50
2022-10-25T15:44:57.155Z,95828.84
2022-10-25T15:47:33.005Z,95824.16
2022-10-25T15:50:07.533Z,95820.81
2022-10-25T15:52:36.639Z,95828.81
2022-10-25T15:55:19.865Z,95828.34
2022-10-25T15:57:49.432Z,95830.56
2022-10-25T16:00:24.171Z,95824.25
2022-10-25T16:02:57.362Z,95825.34
2022-10-25T16:05:28.624Z,95829.63
2022-10-25T16:07:57.732Z,95829.09
2022-10-25T16:10:29.593Z,95830.75
2022-10-25T16:13:03.829Z,95841.06
2022-10-25T16:15:33.792Z,95845.59
2022-10-25T16:18:02.888Z,95849.28
2022-10-25T16:20:32.735Z,95851.06
2022-10-25T16:23:01.863Z,95850.91
2022-10-25T16:25:33.323Z,95850.44
2022-10-25T16:28:02.753Z,95845.94
2022-10-25T16:30:34.727Z,95839.81
2022-10-25T16:33:04.381Z,95846.09
2022-10-25T16:35:33.472Z,95853.72
2022-10-25T16:38:04.342Z,95844.34
2022-10-25T16:40:35.229Z,95844.69
2022-10-25T16:43:05.034Z,95850.91
2022-10-25T16:45:37.897Z,95863.09
2022-10-25T16:48:07.403Z,95852.88
2022-10-25T16:50:36.824Z,95856.63
2022-10-25T16:53:09.119Z,95861.25
2022-10-25T16:55:40.071Z,95866.91
2022-10-25T16:58:10.275Z,95870.69
2022-10-25T17:00:39.415Z,95874.97
2022-10-25T17:03:10.758Z,95869.56
2022-10-25T17:05:40.247Z,95869.81
2022-10-25T17:08:09.368Z,95869.81
2022-10-25T17:10:43.710Z,95869.25
2022-10-25T17:13:16.094Z,95874.59
2022-10-25T17:15:45.232Z,95871.91
2022-10-25T17:18:19.242Z,95869.72
2022-10-25T17:20:49.948Z,95869.69
2022-10-25T17:23:19.750Z,95870.97
2022-10-25T17:25:58.893Z,95866.63
2022-10-25T17:28:28.263Z,95867.41
2022-10-25T17:30:58.790Z,95870.31
2022-10-25T17:33:28.141Z,95865.16
2022-10-25T17:35:57.321Z,95862.72
2022-10-25T17:38:26.527Z,95864.88
2022-10-25T17:40:55.684Z,95868.63
2022-10-25T17:43:26.323Z,95870.50
2022-10-25T17:46:00.914Z,95870.78
2022-10-25T17:48:30.870Z,95858.34
2022-10-25T17:51:04.438Z,95870.16
2022-10-25T17:53:33.689Z,95852.56
2022-10-25T17:56:12.454Z,95856.06
2022-10-25T17:58:45.769Z,95854.97
2022-10-25T18:01:20.895Z,95859.75
2022-10-25T18:03:50.356Z,95852.97
2022-10-25T18:06:23.616Z,95860.72
2022-10-25T18:08:54.903Z,95862.06
2022-10-25T18:11:28.125Z,95857.75
2022-10-25T18:14:01.527Z,95865.56
2022-10-25T18:16:31.944Z,95859.09
2022-10-25T18:19:03.178Z,95860.38
2022-10-25T18:21:34.407Z,95849.56
2022-10-25T18:24:05.866Z,95856.78
2022-10-25T18:26:36.311Z,95853.22
2022-10-25T18:29:07.065Z,95852.66
2022-10-25T18:31:36.442Z,95855.03
2022-10-25T18:34:06.525Z,95851.25
2022-10-25T18:36:35.995Z,95850.94
2022-10-25T18:39:56.350Z,95849.50
2022-10-25T18:42:25.852Z,95846.00
2022-10-25T18:44:56.773Z,95842.19
2022-10-25T18:47:26.557Z,95843.19
2022-10-25T18:49:55.758Z,95837.50
2022-10-25T18:52:26.357Z,95840.13
2022-10-25T18:54:55.870Z,95831.50
2022-10-25T19:04:06.855Z,95829.38
2022-10-25T19:06:36.679Z,95818.66
2022-10-25T19:09:05.997Z,95822.09
2022-10-25T19:11:35.174Z,95817.25
2022-10-25T19:14:05.583Z,95817.19
2022-10-25T19:16:35.911Z,95808.25
2022-10-25T19:19:07.106Z,95807.13
2022-10-25T19:21:36.671Z,95811.94
2022-10-25T19:24:07.294Z,95802.47
2022-10-25T19:26:36.848Z,95807.00
2022-10-25T19:29:06.359Z,95812.34
2022-10-25T19:31:35.928Z,95806.66
2022-10-25T19:34:06.778Z,95806.09
2022-10-25T19:36:36.653Z,95802.03
2022-10-25T19:39:06.629Z,95803.56
2022-10-25T20:35:13.698Z,95793.63
2022-10-25T20:37:44.647Z,95785.81
2022-10-25T20:40:14.371Z,95785.59
2022-10-25T20:42:43.798Z,95785.59
2022-10-25T20:45:13.626Z,95784.53
2022-10-25T20:47:44.787Z,95777.28
2022-10-25T20:50:14.478Z,95783.22
2022-10-25T20:52:58.578Z,95787.50
2022-10-25T20:55:35.581Z,95788.00
2022-10-25T21:11:33.686Z,95786.25
2022-10-25T21:14:04.777Z,95776.56
2022-10-25T21:16:34.213Z,95775.75
2022-10-25T21:19:04.509Z,95778.69
2022-10-25T21:21:34.047Z,95770.41
2022-10-25T21:24:05.845Z,95773.34
2022-10-25T21:26:35.294Z,95776.81
2022-10-25T21:29:08.133Z,95778.38
2022-10-25T21:31:38.686Z,95769.19
2022-10-25T21:34:08.105Z,95765.94
2022-10-25T21:36:37.636Z,95762.16
2022-10-25T21:39:07.097Z,95766.38
2022-10-25T21:41:36.647Z,95761.28
2022-10-25T21:46:41.867Z,95750.81
2022-10-25T21:49:11.426Z,95755.91
2022-10-25T21:51:40.830Z,95751.69
2022-10-25T21:54:10.273Z,95746.81
2022-10-25T21:56:39.806Z,95733.13
2022-10-25T21:59:10.762Z,95736.59
2022-10-25T22:01:40.429Z,95738.72
2022-10-25T22:04:10.668Z,95736.78
2022-10-25T22:06:40.252Z,95732.47
2022-10-25T22:09:10.475Z,95721.69
2022-10-25T22:11:40.896Z,95734.25
2022-10-25T22:14:15.562Z,95721.38
2022-10-25T22:16:45.800Z,95717.09
2022-10-25T22:19:20.702Z,95711.22
2022-10-25T22:21:52.895Z,95728.66
2022-10-25T22:24:22.449Z,95731.56
2022-10-25T22:26:52.314Z,95728.09
2022-10-25T22:29:23.146Z,95723.53
2022-10-25T22:31:52.628Z,95717.69
2022-10-25T22:34:22.162Z,95718.28
2022-10-25T22:36:51.587Z,95718.03
2022-10-25T22:39:21.002Z,95718.34
2022-10-25T22:41:52.830Z,95722.41
2022-10-25T22:44:23.711Z,95725.06
2022-10-25T22:46:53.829Z,95714.38
2022-10-25T22:49:23.542Z,95713.06
2022-10-25T22:51:52.965Z,95722.81
2022-10-25T22:54:23.143Z,95713.47
2022-10-25T22:56:52.588Z,95716.44
2022-10-25T22:59:23.883Z,95721.28
2022-10-25T23:01:54.844Z,95726.72
2022-10-25T23:04:25.092Z,95722.44
2022-10-25T23:06:54.783Z,95730.22
2022-10-25T23:09:24.562Z,95737.44
2022-10-25T23:11:54.069Z,95730.47
2022-10-25T23:14:24.885Z,95727.28
2022-10-25T23:16:54.742Z,95717.13
2022-10-25T23:19:24.146Z,95719.09
2022-10-25T23:21:53.634Z,95730.44
2022-10-25T23:24:23.795Z,95729.91
2022-10-25T23:26:53.722Z,95726.97
2022-10-25T23:29:24.710Z,95719.81
2022-10-25T23:31:54.257Z,95695.19
2022-10-25T23:36:58.626Z,95716.28
2022-10-25T23:39:28.396Z,95725.94
2022-10-25T23:41:58.429Z,95717.63
2022-10-25T23:44:29.282Z,95721.94
2022-10-25T23:46:58.750Z,95720.38
2022-10-25T23:49:28.199Z,95716.63
2022-10-25T23:51:57.703Z,95716.94
2022-10-25T23:54:27.126Z,95723.72
2022-10-25T23:56:56.587Z,95717.84
2022-10-25T23:59:26.128Z,95722.16
